Terminal Aerodrome Forecast
Issued by NWS Sioux Falls, SD

Home | Current Version | Previous Version | Graphics & Text | Print | Product List | Glossary On
Versions: 1 2 3 4 5 6 7 8 9 10 11 12
000
FTUS43 KFSD 311100
TAFHON
TAF
KHON 311127Z 3112/0112 VRB04KT P6SM SCT070
      TEMPO 3112/3114 -SHRA BKN070=

USA.gov is the U.S. government's official web portal to all federal, state and local government web resources and services.